sensor_id;sensor_type;location;lat;lon;timestamp;temperature;humidity
10089;DHT22;51898;49.864;8.550;2023-05-29T00:00:55;16.00;56.20
10089;DHT22;51898;49.864;8.550;2023-05-29T00:03:57;15.90;56.40
10089;DHT22;51898;49.864;8.550;2023-05-29T00:06:59;15.90;56.50
10089;DHT22;51898;49.864;8.550;2023-05-29T00:10:01;15.80;56.80
10089;DHT22;51898;49.864;8.550;2023-05-29T00:13:03;15.70;56.90
10089;DHT22;51898;49.864;8.550;2023-05-29T00:16:07;15.70;57.20
10089;DHT22;51898;49.864;8.550;2023-05-29T00:19:10;15.70;57.40
10089;DHT22;51898;49.864;8.550;2023-05-29T00:22:12;15.60;57.50
10089;DHT22;51898;49.864;8.550;2023-05-29T00:25:14;15.50;57.80
10089;DHT22;51898;49.864;8.550;2023-05-29T00:28:16;15.40;57.90
10089;DHT22;51898;49.864;8.550;2023-05-29T00:31:18;15.50;58.00
10089;DHT22;51898;49.864;8.550;2023-05-29T00:34:21;15.40;58.20
10089;DHT22;51898;49.864;8.550;2023-05-29T00:37:23;15.40;58.10
10089;DHT22;51898;49.864;8.550;2023-05-29T00:40:26;15.40;58.30
10089;DHT22;51898;49.864;8.550;2023-05-29T00:43:27;15.30;58.30
10089;DHT22;51898;49.864;8.550;2023-05-29T00:46:30;15.20;58.70
10089;DHT22;51898;49.864;8.550;2023-05-29T00:49:34;15.20;58.90
10089;DHT22;51898;49.864;8.550;2023-05-29T00:52:37;15.20;59.10
10089;DHT22;51898;49.864;8.550;2023-05-29T00:55:39;15.10;59.20
10089;DHT22;51898;49.864;8.550;2023-05-29T00:58:42;15.10;59.50
10089;DHT22;51898;49.864;8.550;2023-05-29T01:01:44;15.10;59.70
10089;DHT22;51898;49.864;8.550;2023-05-29T01:04:45;15.00;59.90
10089;DHT22;51898;49.864;8.550;2023-05-29T01:07:47;15.00;60.00
10089;DHT22;51898;49.864;8.550;2023-05-29T01:10:53;15.00;60.10
10089;DHT22;51898;49.864;8.550;2023-05-29T01:14:01;15.00;60.20
10089;DHT22;51898;49.864;8.550;2023-05-29T01:27:22;14.80;61.00
10089;DHT22;51898;49.864;8.550;2023-05-29T01:30:28;14.80;61.00
10089;DHT22;51898;49.864;8.550;2023-05-29T01:33:30;14.70;61.20
10089;DHT22;51898;49.864;8.550;2023-05-29T01:36:31;14.70;61.20
10089;DHT22;51898;49.864;8.550;2023-05-29T01:39:35;14.70;61.40
10089;DHT22;51898;49.864;8.550;2023-05-29T01:42:37;14.60;61.60
10089;DHT22;51898;49.864;8.550;2023-05-29T01:45:39;14.50;62.10
10089;DHT22;51898;49.864;8.550;2023-05-29T01:48:42;14.40;62.10
10089;DHT22;51898;49.864;8.550;2023-05-29T01:51:43;14.40;62.30
10089;DHT22;51898;49.864;8.550;2023-05-29T01:54:45;14.40;62.30
10089;DHT22;51898;49.864;8.550;2023-05-29T01:57:48;14.40;62.40
10089;DHT22;51898;49.864;8.550;2023-05-29T02:00:50;14.30;62.80
10089;DHT22;51898;49.864;8.550;2023-05-29T02:03:52;14.30;62.90
10089;DHT22;51898;49.864;8.550;2023-05-29T02:06:54;14.20;63.00
10089;DHT22;51898;49.864;8.550;2023-05-29T02:09:56;14.20;63.10
10089;DHT22;51898;49.864;8.550;2023-05-29T02:12:57;14.20;63.40
10089;DHT22;51898;49.864;8.550;2023-05-29T02:15:59;14.20;63.40
10089;DHT22;51898;49.864;8.550;2023-05-29T02:19:01;14.10;63.60
10089;DHT22;51898;49.864;8.550;2023-05-29T02:22:03;14.00;63.80
10089;DHT22;51898;49.864;8.550;2023-05-29T02:25:05;14.00;64.10
10089;DHT22;51898;49.864;8.550;2023-05-29T02:28:08;13.90;64.50
10089;DHT22;51898;49.864;8.550;2023-05-29T02:31:10;13.90;64.60
10089;DHT22;51898;49.864;8.550;2023-05-29T02:34:12;13.80;64.90
10089;DHT22;51898;49.864;8.550;2023-05-29T02:37:14;13.70;65.00
10089;DHT22;51898;49.864;8.550;2023-05-29T02:40:17;13.70;65.20
10089;DHT22;51898;49.864;8.550;2023-05-29T02:43:21;13.70;65.30
10089;DHT22;51898;49.864;8.550;2023-05-29T02:46:23;13.70;65.50
10089;DHT22;51898;49.864;8.550;2023-05-29T02:49:25;13.70;65.50
10089;DHT22;51898;49.864;8.550;2023-05-29T02:52:26;13.60;65.60
10089;DHT22;51898;49.864;8.550;2023-05-29T02:55:28;13.60;65.70
10089;DHT22;51898;49.864;8.550;2023-05-29T02:58:30;13.50;66.20
10089;DHT22;51898;49.864;8.550;2023-05-29T03:01:31;13.50;66.30
10089;DHT22;51898;49.864;8.550;2023-05-29T03:04:34;13.50;66.40
10089;DHT22;51898;49.864;8.550;2023-05-29T03:07:36;13.40;66.50
10089;DHT22;51898;49.864;8.550;2023-05-29T03:10:38;13.40;66.50
10089;DHT22;51898;49.864;8.550;2023-05-29T03:13:39;13.40;67.00
10089;DHT22;51898;49.864;8.550;2023-05-29T03:16:42;13.30;67.10
10089;DHT22;51898;49.864;8.550;2023-05-29T03:19:44;13.30;67.00
10089;DHT22;51898;49.864;8.550;2023-05-29T03:22:46;13.30;66.90
10089;DHT22;51898;49.864;8.550;2023-05-29T03:25:48;13.30;67.10
10089;DHT22;51898;49.864;8.550;2023-05-29T03:28:49;13.30;67.10
10089;DHT22;51898;49.864;8.550;2023-05-29T03:31:51;13.30;67.50
10089;DHT22;51898;49.864;8.550;2023-05-29T03:34:53;13.20;67.90
10089;DHT22;51898;49.864;8.550;2023-05-29T03:37:55;13.20;68.10
10089;DHT22;51898;49.864;8.550;2023-05-29T03:40:57;13.20;68.20
10089;DHT22;51898;49.864;8.550;2023-05-29T03:43:58;13.20;68.40
10089;DHT22;51898;49.864;8.550;2023-05-29T03:47:00;13.20;68.50
10089;DHT22;51898;49.864;8.550;2023-05-29T03:50:02;13.20;68.40
10089;DHT22;51898;49.864;8.550;2023-05-29T03:53:03;13.30;68.60
10089;DHT22;51898;49.864;8.550;2023-05-29T03:56:05;13.40;68.50
10089;DHT22;51898;49.864;8.550;2023-05-29T03:59:07;13.40;68.60
10089;DHT22;51898;49.864;8.550;2023-05-29T04:02:09;13.60;68.20
10089;DHT22;51898;49.864;8.550;2023-05-29T04:05:14;13.70;68.00
10089;DHT22;51898;49.864;8.550;2023-05-29T04:08:16;13.90;67.60
10089;DHT22;51898;49.864;8.550;2023-05-29T04:11:17;14.00;67.50
10089;DHT22;51898;49.864;8.550;2023-05-29T04:14:22;14.20;66.70
10089;DHT22;51898;49.864;8.550;2023-05-29T04:17:23;14.40;66.30
10089;DHT22;51898;49.864;8.550;2023-05-29T04:20:25;14.60;65.50
10089;DHT22;51898;49.864;8.550;2023-05-29T04:23:27;14.70;65.40
10089;DHT22;51898;49.864;8.550;2023-05-29T04:26:29;14.80;65.00
10089;DHT22;51898;49.864;8.550;2023-05-29T04:29:31;14.90;64.80
10089;DHT22;51898;49.864;8.550;2023-05-29T04:32:35;15.20;64.00
10089;DHT22;51898;49.864;8.550;2023-05-29T04:35:38;15.30;63.80
10089;DHT22;51898;49.864;8.550;2023-05-29T04:38:39;15.30;64.00
10089;DHT22;51898;49.864;8.550;2023-05-29T04:41:42;15.50;63.40
10089;DHT22;51898;49.864;8.550;2023-05-29T04:44:44;15.60;63.20
10089;DHT22;51898;49.864;8.550;2023-05-29T04:47:46;15.70;63.00
10089;DHT22;51898;49.864;8.550;2023-05-29T04:50:47;15.70;63.10
10089;DHT22;51898;49.864;8.550;2023-05-29T04:53:50;15.80;63.30
10089;DHT22;51898;49.864;8.550;2023-05-29T04:56:55;15.90;62.90
10089;DHT22;51898;49.864;8.550;2023-05-29T04:59:56;15.90;62.90
10089;DHT22;51898;49.864;8.550;2023-05-29T05:02:58;15.90;62.90
10089;DHT22;51898;49.864;8.550;2023-05-29T05:06:01;16.00;63.10
10089;DHT22;51898;49.864;8.550;2023-05-29T05:09:03;15.90;63.20
10089;DHT22;51898;49.864;8.550;2023-05-29T05:12:06;15.90;63.30
10089;DHT22;51898;49.864;8.550;2023-05-29T05:15:08;15.90;63.40
10089;DHT22;51898;49.864;8.550;2023-05-29T05:18:10;15.90;63.40
10089;DHT22;51898;49.864;8.550;2023-05-29T05:21:12;15.70;64.00
10089;DHT22;51898;49.864;8.550;2023-05-29T05:24:13;15.70;64.50
10089;DHT22;51898;49.864;8.550;2023-05-29T05:27:15;15.70;64.60
10089;DHT22;51898;49.864;8.550;2023-05-29T05:30:17;15.70;64.30
10089;DHT22;51898;49.864;8.550;2023-05-29T05:33:18;15.80;64.10
10089;DHT22;51898;49.864;8.550;2023-05-29T05:36:20;15.80;64.30
10089;DHT22;51898;49.864;8.550;2023-05-29T05:39:22;16.00;63.80
10089;DHT22;51898;49.864;8.550;2023-05-29T05:42:24;16.20;63.40
10089;DHT22;51898;49.864;8.550;2023-05-29T05:45:26;16.40;62.30
10089;DHT22;51898;49.864;8.550;2023-05-29T05:48:27;16.40;62.40
10089;DHT22;51898;49.864;8.550;2023-05-29T05:51:29;16.50;62.30
10089;DHT22;51898;49.864;8.550;2023-05-29T05:54:32;16.50;62.10
10089;DHT22;51898;49.864;8.550;2023-05-29T05:57:34;16.50;62.30
10089;DHT22;51898;49.864;8.550;2023-05-29T06:00:36;16.70;61.40
10089;DHT22;51898;49.864;8.550;2023-05-29T06:03:38;16.90;60.70
10089;DHT22;51898;49.864;8.550;2023-05-29T06:06:41;16.90;60.30
10089;DHT22;51898;49.864;8.550;2023-05-29T06:09:43;16.90;60.40
10089;DHT22;51898;49.864;8.550;2023-05-29T06:12:45;16.90;60.40
10089;DHT22;51898;49.864;8.550;2023-05-29T06:15:46;16.90;60.80
10089;DHT22;51898;49.864;8.550;2023-05-29T06:18:48;17.10;60.50
10089;DHT22;51898;49.864;8.550;2023-05-29T06:21:50;17.20;59.70
10089;DHT22;51898;49.864;8.550;2023-05-29T06:24:51;17.20;59.20
10089;DHT22;51898;49.864;8.550;2023-05-29T06:27:53;17.20;59.50
10089;DHT22;51898;49.864;8.550;2023-05-29T06:30:55;17.30;59.70
10089;DHT22;51898;49.864;8.550;2023-05-29T06:33:57;17.60;58.90
10089;DHT22;51898;49.864;8.550;2023-05-29T06:36:59;17.80;57.70
10089;DHT22;51898;49.864;8.550;2023-05-29T06:40:01;17.90;57.00
10089;DHT22;51898;49.864;8.550;2023-05-29T06:43:02;17.90;56.50
10089;DHT22;51898;49.864;8.550;2023-05-29T06:46:04;18.10;57.00
10089;DHT22;51898;49.864;8.550;2023-05-29T06:49:06;18.10;56.50
10089;DHT22;51898;49.864;8.550;2023-05-29T06:52:07;18.00;56.70
10089;DHT22;51898;49.864;8.550;2023-05-29T06:55:09;18.20;56.80
10089;DHT22;51898;49.864;8.550;2023-05-29T06:58:11;18.30;56.40
10089;DHT22;51898;49.864;8.550;2023-05-29T07:01:12;18.60;54.90
10089;DHT22;51898;49.864;8.550;2023-05-29T07:04:14;18.80;54.10
10089;DHT22;51898;49.864;8.550;2023-05-29T07:07:16;18.80;53.80
10089;DHT22;51898;49.864;8.550;2023-05-29T07:10:18;18.90;54.20
10089;DHT22;51898;49.864;8.550;2023-05-29T07:13:20;19.20;53.60
10089;DHT22;51898;49.864;8.550;2023-05-29T07:16:21;19.40;52.90
10089;DHT22;51898;49.864;8.550;2023-05-29T07:19:26;19.60;52.10
10089;DHT22;51898;49.864;8.550;2023-05-29T07:22:27;19.70;50.80
10089;DHT22;51898;49.864;8.550;2023-05-29T07:25:30;19.70;50.70
10089;DHT22;51898;49.864;8.550;2023-05-29T07:28:31;20.00;51.10
10089;DHT22;51898;49.864;8.550;2023-05-29T07:31:33;20.10;50.80
10089;DHT22;51898;49.864;8.550;2023-05-29T07:34:35;20.20;50.00
10089;DHT22;51898;49.864;8.550;2023-05-29T07:37:37;20.30;48.60
10089;DHT22;51898;49.864;8.550;2023-05-29T07:40:39;20.20;48.20
10089;DHT22;51898;49.864;8.550;2023-05-29T07:43:53;20.10;48.70
10089;DHT22;51898;49.864;8.550;2023-05-29T07:46:56;20.20;48.90
10089;DHT22;51898;49.864;8.550;2023-05-29T07:49:58;20.30;49.20
10089;DHT22;51898;49.864;8.550;2023-05-29T07:53:00;20.50;48.60
10089;DHT22;51898;49.864;8.550;2023-05-29T07:56:01;20.60;48.40
10089;DHT22;51898;49.864;8.550;2023-05-29T07:59:03;20.80;47.10
10089;DHT22;51898;49.864;8.550;2023-05-29T08:02:05;20.90;47.00
10089;DHT22;51898;49.864;8.550;2023-05-29T08:05:08;21.00;47.10
10089;DHT22;51898;49.864;8.550;2023-05-29T08:08:10;21.10;46.00
10089;DHT22;51898;49.864;8.550;2023-05-29T08:11:15;21.40;46.60
10089;DHT22;51898;49.864;8.550;2023-05-29T08:14:16;21.40;45.90
10089;DHT22;51898;49.864;8.550;2023-05-29T08:17:18;21.50;45.80
10089;DHT22;51898;49.864;8.550;2023-05-29T08:20:20;21.60;45.80
10089;DHT22;51898;49.864;8.550;2023-05-29T08:23:22;21.70;46.20
10089;DHT22;51898;49.864;8.550;2023-05-29T08:26:24;21.90;44.70
10089;DHT22;51898;49.864;8.550;2023-05-29T08:29:25;21.60;46.00
10089;DHT22;51898;49.864;8.550;2023-05-29T08:32:27;21.60;46.90
10089;DHT22;51898;49.864;8.550;2023-05-29T08:35:29;21.80;46.80
10089;DHT22;51898;49.864;8.550;2023-05-29T08:38:31;21.90;46.80
10089;DHT22;51898;49.864;8.550;2023-05-29T08:44:52;21.90;46.70
10089;DHT22;51898;49.864;8.550;2023-05-29T08:47:58;22.20;46.60
10089;DHT22;51898;49.864;8.550;2023-05-29T08:51:02;22.40;45.00
10089;DHT22;51898;49.864;8.550;2023-05-29T08:54:04;22.40;45.90
10089;DHT22;51898;49.864;8.550;2023-05-29T08:57:07;22.40;46.40
10089;DHT22;51898;49.864;8.550;2023-05-29T09:00:11;22.40;44.40
10089;DHT22;51898;49.864;8.550;2023-05-29T09:03:18;22.30;45.50
10089;DHT22;51898;49.864;8.550;2023-05-29T09:06:23;22.60;45.40
10089;DHT22;51898;49.864;8.550;2023-05-29T09:09:27;22.80;44.90
10089;DHT22;51898;49.864;8.550;2023-05-29T09:12:30;22.90;44.30
10089;DHT22;51898;49.864;8.550;2023-05-29T09:15:31;23.00;43.80
10089;DHT22;51898;49.864;8.550;2023-05-29T09:18:33;23.20;43.80
10089;DHT22;51898;49.864;8.550;2023-05-29T09:21:35;23.30;42.40
10089;DHT22;51898;49.864;8.550;2023-05-29T09:24:38;23.20;42.70
10089;DHT22;51898;49.864;8.550;2023-05-29T09:27:43;23.30;42.60
10089;DHT22;51898;49.864;8.550;2023-05-29T09:30:46;23.50;41.60
10089;DHT22;51898;49.864;8.550;2023-05-29T09:33:50;23.50;41.80
10089;DHT22;51898;49.864;8.550;2023-05-29T09:36:53;23.40;42.70
10089;DHT22;51898;49.864;8.550;2023-05-29T09:39:55;23.50;41.70
10089;DHT22;51898;49.864;8.550;2023-05-29T09:43:05;23.70;41.00
10089;DHT22;51898;49.864;8.550;2023-05-29T09:46:15;23.70;41.80
10089;DHT22;51898;49.864;8.550;2023-05-29T09:49:22;23.70;41.70
10089;DHT22;51898;49.864;8.550;2023-05-29T09:52:24;23.90;42.00
10089;DHT22;51898;49.864;8.550;2023-05-29T09:55:27;24.10;42.70
10089;DHT22;51898;49.864;8.550;2023-05-29T09:58:30;24.20;41.60
10089;DHT22;51898;49.864;8.550;2023-05-29T10:01:34;24.20;41.60
10089;DHT22;51898;49.864;8.550;2023-05-29T10:04:36;24.20;42.70
10089;DHT22;51898;49.864;8.550;2023-05-29T10:07:43;24.30;42.00
10089;DHT22;51898;49.864;8.550;2023-05-29T10:10:56;24.20;42.40
10089;DHT22;51898;49.864;8.550;2023-05-29T10:14:00;24.20;42.20
10089;DHT22;51898;49.864;8.550;2023-05-29T10:17:07;24.40;41.70
10089;DHT22;51898;49.864;8.550;2023-05-29T10:20:13;24.40;41.50
10089;DHT22;51898;49.864;8.550;2023-05-29T10:23:21;24.50;40.70
10089;DHT22;51898;49.864;8.550;2023-05-29T10:26:27;24.50;41.50
10089;DHT22;51898;49.864;8.550;2023-05-29T10:29:46;24.60;42.10
10089;DHT22;51898;49.864;8.550;2023-05-29T10:33:07;24.70;41.40
10089;DHT22;51898;49.864;8.550;2023-05-29T10:36:19;24.70;41.50
10089;DHT22;51898;49.864;8.550;2023-05-29T10:39:23;24.80;39.80
10089;DHT22;51898;49.864;8.550;2023-05-29T10:45:50;24.50;39.80
10089;DHT22;51898;49.864;8.550;2023-05-29T10:48:53;24.60;41.20
10089;DHT22;51898;49.864;8.550;2023-05-29T10:51:58;24.70;41.30
10089;DHT22;51898;49.864;8.550;2023-05-29T10:55:01;24.70;39.20
10089;DHT22;51898;49.864;8.550;2023-05-29T10:58:07;24.80;40.50
10089;DHT22;51898;49.864;8.550;2023-05-29T11:01:08;24.80;39.10
10089;DHT22;51898;49.864;8.550;2023-05-29T11:07:37;25.10;38.10
10089;DHT22;51898;49.864;8.550;2023-05-29T11:14:00;25.20;38.70
10089;DHT22;51898;49.864;8.550;2023-05-29T11:17:05;25.20;38.90
10089;DHT22;51898;49.864;8.550;2023-05-29T11:23:16;25.20;38.80
10089;DHT22;51898;49.864;8.550;2023-05-29T11:26:23;25.20;38.80
10089;DHT22;51898;49.864;8.550;2023-05-29T11:29:28;25.40;38.80
10089;DHT22;51898;49.864;8.550;2023-05-29T11:32:30;25.30;38.30
10089;DHT22;51898;49.864;8.550;2023-05-29T11:35:34;25.50;37.80
10089;DHT22;51898;49.864;8.550;2023-05-29T11:38:39;25.70;37.70
10089;DHT22;51898;49.864;8.550;2023-05-29T11:41:41;25.70;37.20
10089;DHT22;51898;49.864;8.550;2023-05-29T11:44:43;25.80;36.90
10089;DHT22;51898;49.864;8.550;2023-05-29T11:47:55;25.80;36.10
10089;DHT22;51898;49.864;8.550;2023-05-29T11:50:57;25.90;37.20
10089;DHT22;51898;49.864;8.550;2023-05-29T11:54:00;26.00;36.60
10089;DHT22;51898;49.864;8.550;2023-05-29T11:57:02;26.10;35.80
10089;DHT22;51898;49.864;8.550;2023-05-29T12:00:07;26.30;35.60
10089;DHT22;51898;49.864;8.550;2023-05-29T12:03:12;26.30;36.00
10089;DHT22;51898;49.864;8.550;2023-05-29T12:06:14;26.40;36.30
10089;DHT22;51898;49.864;8.550;2023-05-29T12:09:29;26.20;37.20
10089;DHT22;51898;49.864;8.550;2023-05-29T12:12:31;26.30;37.30
10089;DHT22;51898;49.864;8.550;2023-05-29T12:15:32;26.30;37.50
10089;DHT22;51898;49.864;8.550;2023-05-29T12:18:34;26.40;36.80
10089;DHT22;51898;49.864;8.550;2023-05-29T12:21:41;26.30;36.80
10089;DHT22;51898;49.864;8.550;2023-05-29T12:24:43;26.40;36.60
10089;DHT22;51898;49.864;8.550;2023-05-29T12:27:46;26.30;36.50
10089;DHT22;51898;49.864;8.550;2023-05-29T12:30:49;26.30;36.60
10089;DHT22;51898;49.864;8.550;2023-05-29T12:33:51;26.20;36.80
10089;DHT22;51898;49.864;8.550;2023-05-29T12:36:53;26.40;36.40
10089;DHT22;51898;49.864;8.550;2023-05-29T12:40:14;26.50;36.90
10089;DHT22;51898;49.864;8.550;2023-05-29T12:43:16;26.80;36.40
10089;DHT22;51898;49.864;8.550;2023-05-29T12:46:18;26.90;35.70
10089;DHT22;51898;49.864;8.550;2023-05-29T12:49:20;26.70;35.40
10089;DHT22;51898;49.864;8.550;2023-05-29T12:52:23;26.80;35.50
10089;DHT22;51898;49.864;8.550;2023-05-29T12:55:29;27.10;35.10
10089;DHT22;51898;49.864;8.550;2023-05-29T12:58:31;27.30;33.80
10089;DHT22;51898;49.864;8.550;2023-05-29T13:01:33;27.20;32.80
10089;DHT22;51898;49.864;8.550;2023-05-29T13:04:36;27.10;33.00
10089;DHT22;51898;49.864;8.550;2023-05-29T13:07:37;27.00;32.70
10089;DHT22;51898;49.864;8.550;2023-05-29T13:10:39;27.20;32.10
10089;DHT22;51898;49.864;8.550;2023-05-29T13:13:41;27.40;32.50
10089;DHT22;51898;49.864;8.550;2023-05-29T13:16:43;27.60;31.60
10089;DHT22;51898;49.864;8.550;2023-05-29T13:19:45;27.50;31.30
10089;DHT22;51898;49.864;8.550;2023-05-29T13:22:47;27.30;31.00
10089;DHT22;51898;49.864;8.550;2023-05-29T13:25:49;27.20;31.30
10089;DHT22;51898;49.864;8.550;2023-05-29T13:28:51;27.20;31.60
10089;DHT22;51898;49.864;8.550;2023-05-29T13:31:53;27.20;31.30
10089;DHT22;51898;49.864;8.550;2023-05-29T13:34:55;27.20;31.50
10089;DHT22;51898;49.864;8.550;2023-05-29T13:37:57;27.30;31.50
10089;DHT22;51898;49.864;8.550;2023-05-29T13:40:58;27.40;31.60
10089;DHT22;51898;49.864;8.550;2023-05-29T13:44:00;27.60;31.80
10089;DHT22;51898;49.864;8.550;2023-05-29T13:47:02;27.90;31.70
10089;DHT22;51898;49.864;8.550;2023-05-29T13:50:04;27.90;31.90
10089;DHT22;51898;49.864;8.550;2023-05-29T13:53:07;27.90;31.50
10089;DHT22;51898;49.864;8.550;2023-05-29T13:56:08;27.60;32.00
10089;DHT22;51898;49.864;8.550;2023-05-29T13:59:10;27.50;32.20
10089;DHT22;51898;49.864;8.550;2023-05-29T14:02:12;27.70;32.10
10089;DHT22;51898;49.864;8.550;2023-05-29T14:05:14;27.60;32.40
10089;DHT22;51898;49.864;8.550;2023-05-29T14:08:16;27.70;32.30
10089;DHT22;51898;49.864;8.550;2023-05-29T14:11:17;27.70;32.70
10089;DHT22;51898;49.864;8.550;2023-05-29T14:14:19;27.60;32.40
10089;DHT22;51898;49.864;8.550;2023-05-29T14:17:21;27.50;32.90
10089;DHT22;51898;49.864;8.550;2023-05-29T14:20:22;27.60;32.80
10089;DHT22;51898;49.864;8.550;2023-05-29T14:23:24;27.50;32.70
10089;DHT22;51898;49.864;8.550;2023-05-29T14:26:26;27.50;32.50
10089;DHT22;51898;49.864;8.550;2023-05-29T14:29:28;27.50;32.50
10089;DHT22;51898;49.864;8.550;2023-05-29T14:32:29;27.30;32.60
10089;DHT22;51898;49.864;8.550;2023-05-29T14:35:31;27.50;32.70
10089;DHT22;51898;49.864;8.550;2023-05-29T14:38:33;27.70;32.00
10089;DHT22;51898;49.864;8.550;2023-05-29T14:41:34;27.30;32.30
10089;DHT22;51898;49.864;8.550;2023-05-29T14:44:37;27.40;32.80
10089;DHT22;51898;49.864;8.550;2023-05-29T14:47:40;27.60;32.40
10089;DHT22;51898;49.864;8.550;2023-05-29T14:50:42;27.70;32.10
10089;DHT22;51898;49.864;8.550;2023-05-29T14:53:44;27.70;32.40
10089;DHT22;51898;49.864;8.550;2023-05-29T14:56:45;27.50;32.50
10089;DHT22;51898;49.864;8.550;2023-05-29T14:59:47;27.50;32.50
10089;DHT22;51898;49.864;8.550;2023-05-29T15:02:49;27.80;32.30
10089;DHT22;51898;49.864;8.550;2023-05-29T15:05:50;28.00;32.20
10089;DHT22;51898;49.864;8.550;2023-05-29T15:08:52;28.00;31.80
10089;DHT22;51898;49.864;8.550;2023-05-29T15:11:54;27.70;31.80
10089;DHT22;51898;49.864;8.550;2023-05-29T15:14:56;27.80;31.90
10089;DHT22;51898;49.864;8.550;2023-05-29T15:17:58;27.70;31.80
10089;DHT22;51898;49.864;8.550;2023-05-29T15:20:59;27.70;32.30
10089;DHT22;51898;49.864;8.550;2023-05-29T15:24:01;27.70;32.70
10089;DHT22;51898;49.864;8.550;2023-05-29T15:27:03;27.60;33.30
10089;DHT22;51898;49.864;8.550;2023-05-29T15:30:12;27.90;33.30
10089;DHT22;51898;49.864;8.550;2023-05-29T15:33:15;28.00;34.70
10089;DHT22;51898;49.864;8.550;2023-05-29T15:36:16;28.00;35.30
10089;DHT22;51898;49.864;8.550;2023-05-29T15:39:20;27.70;36.50
10089;DHT22;51898;49.864;8.550;2023-05-29T15:42:22;27.80;36.50
10089;DHT22;51898;49.864;8.550;2023-05-29T15:45:24;27.70;36.60
10089;DHT22;51898;49.864;8.550;2023-05-29T15:48:26;27.80;36.60
10089;DHT22;51898;49.864;8.550;2023-05-29T15:51:28;27.90;36.50
10089;DHT22;51898;49.864;8.550;2023-05-29T15:54:29;27.90;36.20
10089;DHT22;51898;49.864;8.550;2023-05-29T15:57:31;27.80;35.50
10089;DHT22;51898;49.864;8.550;2023-05-29T16:00:33;27.80;35.90
10089;DHT22;51898;49.864;8.550;2023-05-29T16:03:35;27.90;35.40
10089;DHT22;51898;49.864;8.550;2023-05-29T16:06:37;27.90;36.00
10089;DHT22;51898;49.864;8.550;2023-05-29T16:09:39;27.70;36.80
10089;DHT22;51898;49.864;8.550;2023-05-29T16:12:42;27.70;37.10
10089;DHT22;51898;49.864;8.550;2023-05-29T16:15:45;27.60;37.60
10089;DHT22;51898;49.864;8.550;2023-05-29T16:18:49;27.50;37.20
10089;DHT22;51898;49.864;8.550;2023-05-29T16:21:51;27.60;36.80
10089;DHT22;51898;49.864;8.550;2023-05-29T16:24:53;27.80;36.50
10089;DHT22;51898;49.864;8.550;2023-05-29T16:27:55;27.90;36.80
10089;DHT22;51898;49.864;8.550;2023-05-29T16:30:57;28.00;36.20
10089;DHT22;51898;49.864;8.550;2023-05-29T16:33:59;27.90;36.50
10089;DHT22;51898;49.864;8.550;2023-05-29T16:37:01;28.10;36.40
10089;DHT22;51898;49.864;8.550;2023-05-29T16:40:03;27.70;36.90
10089;DHT22;51898;49.864;8.550;2023-05-29T16:43:05;27.50;37.60
10089;DHT22;51898;49.864;8.550;2023-05-29T16:46:07;27.90;37.20
10089;DHT22;51898;49.864;8.550;2023-05-29T16:49:09;27.90;37.10
10089;DHT22;51898;49.864;8.550;2023-05-29T16:52:10;27.60;37.10
10089;DHT22;51898;49.864;8.550;2023-05-29T16:55:12;27.00;38.30
10089;DHT22;51898;49.864;8.550;2023-05-29T16:58:14;27.00;38.80
10089;DHT22;51898;49.864;8.550;2023-05-29T17:01:18;27.20;38.30
10089;DHT22;51898;49.864;8.550;2023-05-29T17:04:23;27.20;38.90
10089;DHT22;51898;49.864;8.550;2023-05-29T17:07:25;27.00;39.00
10089;DHT22;51898;49.864;8.550;2023-05-29T17:10:32;26.60;39.30
10089;DHT22;51898;49.864;8.550;2023-05-29T17:13:34;26.40;39.80
10089;DHT22;51898;49.864;8.550;2023-05-29T17:16:37;26.40;40.20
10089;DHT22;51898;49.864;8.550;2023-05-29T17:19:38;26.40;40.00
10089;DHT22;51898;49.864;8.550;2023-05-29T17:22:40;26.40;40.10
10089;DHT22;51898;49.864;8.550;2023-05-29T17:25:42;26.40;40.10
10089;DHT22;51898;49.864;8.550;2023-05-29T17:28:43;26.40;40.40
10089;DHT22;51898;49.864;8.550;2023-05-29T17:31:45;26.70;40.00
10089;DHT22;51898;49.864;8.550;2023-05-29T17:34:47;26.60;39.70
10089;DHT22;51898;49.864;8.550;2023-05-29T17:37:49;26.70;39.80
10089;DHT22;51898;49.864;8.550;2023-05-29T17:40:51;26.80;39.80
10089;DHT22;51898;49.864;8.550;2023-05-29T17:43:53;26.60;40.10
10089;DHT22;51898;49.864;8.550;2023-05-29T17:46:54;26.70;39.80
10089;DHT22;51898;49.864;8.550;2023-05-29T17:49:56;26.40;40.30
10089;DHT22;51898;49.864;8.550;2023-05-29T17:52:58;26.20;40.80
10089;DHT22;51898;49.864;8.550;2023-05-29T17:55:59;26.20;40.90
10089;DHT22;51898;49.864;8.550;2023-05-29T17:59:06;26.00;41.20
10089;DHT22;51898;49.864;8.550;2023-05-29T18:02:08;25.90;41.40
10089;DHT22;51898;49.864;8.550;2023-05-29T18:05:13;25.50;41.90
10089;DHT22;51898;49.864;8.550;2023-05-29T18:08:15;25.30;42.30
10089;DHT22;51898;49.864;8.550;2023-05-29T18:11:17;25.20;42.50
10089;DHT22;51898;49.864;8.550;2023-05-29T18:14:19;25.00;43.20
10089;DHT22;51898;49.864;8.550;2023-05-29T18:17:29;24.70;43.90
10089;DHT22;51898;49.864;8.550;2023-05-29T18:20:33;24.70;44.10
10089;DHT22;51898;49.864;8.550;2023-05-29T18:23:35;24.50;44.30
10089;DHT22;51898;49.864;8.550;2023-05-29T18:26:36;24.20;44.80
10089;DHT22;51898;49.864;8.550;2023-05-29T18:29:38;24.20;45.00
10089;DHT22;51898;49.864;8.550;2023-05-29T18:32:40;24.10;45.10
10089;DHT22;51898;49.864;8.550;2023-05-29T18:35:42;24.00;45.40
10089;DHT22;51898;49.864;8.550;2023-05-29T18:38:44;23.80;45.70
10089;DHT22;51898;49.864;8.550;2023-05-29T18:41:45;23.50;46.80
10089;DHT22;51898;49.864;8.550;2023-05-29T18:44:47;23.10;47.40
10089;DHT22;51898;49.864;8.550;2023-05-29T18:47:49;22.80;48.10
10089;DHT22;51898;49.864;8.550;2023-05-29T18:50:52;22.60;48.90
10089;DHT22;51898;49.864;8.550;2023-05-29T18:53:54;22.40;49.20
10089;DHT22;51898;49.864;8.550;2023-05-29T18:56:56;22.20;49.70
10089;DHT22;51898;49.864;8.550;2023-05-29T18:59:58;21.90;50.20
10089;DHT22;51898;49.864;8.550;2023-05-29T19:02:59;21.80;50.50
10089;DHT22;51898;49.864;8.550;2023-05-29T19:06:01;21.70;50.80
10089;DHT22;51898;49.864;8.550;2023-05-29T19:09:03;21.60;51.10
10089;DHT22;51898;49.864;8.550;2023-05-29T19:12:06;21.50;51.40
10089;DHT22;51898;49.864;8.550;2023-05-29T19:15:08;21.40;51.60
10089;DHT22;51898;49.864;8.550;2023-05-29T19:18:10;21.30;51.90
10089;DHT22;51898;49.864;8.550;2023-05-29T19:21:12;21.20;52.20
10089;DHT22;51898;49.864;8.550;2023-05-29T19:24:14;21.00;52.50
10089;DHT22;51898;49.864;8.550;2023-05-29T19:27:16;21.00;52.80
10089;DHT22;51898;49.864;8.550;2023-05-29T19:30:17;20.80;52.90
10089;DHT22;51898;49.864;8.550;2023-05-29T19:33:22;20.80;52.90
10089;DHT22;51898;49.864;8.550;2023-05-29T19:36:24;20.70;53.00
10089;DHT22;51898;49.864;8.550;2023-05-29T19:39:26;20.60;52.90